Terminal Aerodrome Forecast
Issued by NWS

Current Version | Previous Version | Text Only | Print | Product List | Glossary Off
Versions: 1 2 3 4 5 6 7 8 9 10 11 12 13 14 15 16 17 18 19 20 21 22 23 24 25 26 27 28 29 30 31 32 33

972
FTUS41 KRLX 281737
TAFCKB
TAF
KCKB 281737Z 2818/2918 25004KT 4SM SHRA BR SCT008 OVC025
      TEMPO 2818/2822 1 1/2SM TSRA BKN008 OVC015CB
     FM282200 25003KT 5SM SHRA BR VCTS SCT015 OVC025CB
     FM290300 00000KT 3SM SHRA BR SCT008 OVC015
     FM290600 00000KT 2SM BR OVC008
     FM290900 00000KT 1SM BR SCT002 OVC006
     FM291300 00000KT 4SM BR BKN008
     FM291500 VRB03KT P6SM BKN012
     FM291600 27003KT P6SM VCSH BKN025=

USA.gov is the U.S. government's official web portal to all federal, state and local government web resources and services.